Stations météo

réclame
Mon MeteoGroup
Ernage, Belgique (6459): Température de l'air & dewpoint: 16.11.2019 04:00:00 - 22.11.2019 04:00:00 (CET)Ernage, Belgique (6459): Vitesse du vent & gusts: 16.11.2019 04:00:00 - 22.11.2019 04:00:00 (CET)Ernage, Belgique (6459): Direction du vent: 16.11.2019 04:00:00 - 22.11.2019 04:00:00 (CET)Ernage, Belgique (6459): reduced air pressure: 16.11.2019 04:00:00 - 22.11.2019 04:00:00 (CET)Ernage, Belgique (6459): Ensoleillement: 16.11.2019 04:00:00 - 22.11.2019 04:00:00 (CET)Ernage, Belgique (6459): Quantités de précipitations: 16.11.2019 04:00:00 - 22.11.2019 04:00:00 (CET)
Date & Time tt [°C] td [°C] ff [km/h] ff [knt] fx [km/h] fx [knt] dd ppp [hPa] sd [min] rr [mm]
22.11.2019 04:00:00 6,1 4,2 16 9 24 13 SSE 1004,5 0 0,0
22.11.2019 03:00:00 5,5 4,0 11 6 24 13 SE 1004,5 0 0,0
22.11.2019 02:00:00 5,6 3,6 17 9 26 14 SSE 1004,4 0 0,0
22.11.2019 01:00:00 5,9 3,6 22 12 29 16 SSE 1004,7 0 0,0
22.11.2019 00:00:00 4,7 3,1 16 8 24 13 SSE 1005,1 0 0,0
21.11.2019 23:00:00 4,0 2,7 13 7 19 10 SE 1005,2 0 0,0
21.11.2019 22:00:00 3,8 2,6 11 6 21 11 SE 1005,6 0 0,0
21.11.2019 21:00:00 4,0 2,7 16 9 22 12 SE 1005,8 0 0,0
21.11.2019 20:00:00 3,8 2,5 12 7 22 12 SE 1005,9 0 0,0
21.11.2019 19:00:00 4,0 2,3 11 6 20 11 SE 1006,0 0 0,0
21.11.2019 18:00:00 3,9 2,3 10 5 16 9 SE 1006,2 0 0,0
21.11.2019 17:00:00 4,8 2,5 10 5 16 9 ESE 1006,2 34 0,0
21.11.2019 16:00:00 5,5 2,9 9 5 21 11 SE 1006,2 32 0,0
21.11.2019 15:00:00 5,4 3,0 18 10 24 13 SE 1006,3 14 0,0
21.11.2019 14:00:00 4,4 2,8 11 6 21 11 SE 1006,6 10 0,0
21.11.2019 13:00:00 3,6 2,2 14 7 22 12 SE 1007,3 31 0,0
21.11.2019 12:00:00 2,8 2,2 11 6 18 10 SE 1008,3 8 0,0
21.11.2019 11:00:00 1,1 0,7 7 4 13 7 ESE 1008,7 0 0,1
21.11.2019 10:00:00 0,0 -0,5 10 5 14 7 E 1009,4 0 0,0
21.11.2019 09:00:00 -0,5 -0,8 10 5 16 9 E 1009,5 0 0,0
21.11.2019 08:00:00 -0,8 -1,1 8 4 12 7 E 1009,3 0 0,0
21.11.2019 07:00:00 -1,2 -1,4 7 4 11 6 E 1009,8 0 0,0
21.11.2019 06:00:00 -1,5 -1,8 7 4 10 5 E 1010,1 0 0,0
21.11.2019 05:00:00 -1,5 -1,8 6 3 12 7 E 1010,6 0 0,0
21.11.2019 04:00:00 -1,3 -1,7 7 4 15 8 E 1011,0 0 0,0
21.11.2019 03:00:00 -1,0 -1,6 14 7 16 9 E 1011,4 0 0,0
21.11.2019 02:00:00 -0,8 -1,5 10 6 14 8 E 1011,7 0 0,0
21.11.2019 01:00:00 -0,4 -1,0 11 6 16 9 E 1012,0 0 0,0
21.11.2019 00:00:00 -0,6 -1,3 10 5 12 7 E 1012,4 0 0,0
20.11.2019 23:00:00 -0,1 -1,2 8 4 19 10 E 1012,7 0 0,0
20.11.2019 22:00:00 0,2 -0,9 14 7 18 10 E 1013,2 0 0,0
20.11.2019 21:00:00 0,1 -1,0 11 6 17 9 E 1013,8 0 0,0
20.11.2019 20:00:00 0,4 -1,1 11 6 17 9 E 1014,1 0 0,0
20.11.2019 19:00:00 1,0 -0,6 11 6 16 9 E 1014,6 0 0,0
20.11.2019 18:00:00 2,3 0,0 11 6 18 10 E 1014,8 0 0,0
20.11.2019 17:00:00 2,9 0,2 14 8 20 11 ESE 1015,1 18 0,0
20.11.2019 16:00:00 4,8 1,3 13 7 21 11 ESE 1015,0 60 0,0
20.11.2019 15:00:00 4,6 1,9 16 9 22 12 ENE 1015,4 60 0,0
20.11.2019 14:00:00 5,0 0,9 14 8 19 10 E 1016,1 60 0,0
20.11.2019 13:00:00 4,4 0,6 11 6 16 8 E 1016,9 60 0,0
20.11.2019 12:00:00 3,4 0,3 10 6 17 9 E 1017,5 60 0,0
20.11.2019 11:00:00 2,4 1,3 6 4 12 7 ESE 1018,3 60 0,1
20.11.2019 10:00:00 0,4 0,4 9 5 12 6 E 1018,6 55 0,1
20.11.2019 09:00:00 -1,5 -1,5 8 4 9 5 E 1018,8 0 0,0
20.11.2019 08:00:00 -1,7 -1,7 6 3 8 5 ESE 1019,1 0 0,0
20.11.2019 07:00:00 -1,7 -1,7 7 4 9 5 ESE 1019,1 0 0,0
20.11.2019 06:00:00 -1,6 -1,6 5 3 10 5 ESE 1019,2 0 0,0
20.11.2019 05:00:00 -1,5 -1,5 6 4 10 5 ESE 1019,6 0 0,0
20.11.2019 04:00:00 -1,6 -1,7 5 3 8 4 SE 1019,8 0 0,0
20.11.2019 03:00:00 -1,7 -1,9 4 2 7 4 ESE 1020,0 0 0,0
20.11.2019 02:00:00 -1,5 -1,7 4 2 9 5 ESE 1020,2 0 0,0
20.11.2019 01:00:00 -0,9 -1,2 4 2 9 5 SE 1020,6 0 0,0
20.11.2019 00:00:00 -0,8 -1,1 6 3 10 5 ESE 1020,8 0 0,0
19.11.2019 23:00:00 -1,0 -1,6 6 4 10 5 ESE 1020,6 0 0,0
19.11.2019 22:00:00 -0,4 -1,6 4 2 7 4 SSE 1020,6 0 0,0
19.11.2019 21:00:00 1,4 0,4 7 4 11 6 S 1020,2 0 0,0
19.11.2019 20:00:00 0,0 -1,0 4 2 5 3 SSE 1020,1 0 0,0
19.11.2019 19:00:00 0,8 -0,8 4 2 9 5 SSE 1020,0 0 0,0
19.11.2019 18:00:00 2,2 -1,0 5 3 8 5 SW 1019,6 0 0,0
19.11.2019 17:00:00 4,3 0,1 6 3 11 6 SW 1019,3 38 0,0
19.11.2019 16:00:00 5,2 0,8 9 5 16 9 WSW 1019,0 40 0,0
19.11.2019 15:00:00 5,8 2,6 8 4 21 12 WSW 1018,8 9 0,0
19.11.2019 14:00:00 6,3 2,0 15 8 22 12 W 1018,6 53 0,0
19.11.2019 13:00:00 6,3 3,2 14 8 23 13 WSW 1018,7 58 0,0
19.11.2019 12:00:00 4,9 4,4 12 7 23 12 SW 1018,8 40 0,0
19.11.2019 11:00:00 3,3 2,9 13 7 20 11 SW 1019,1 53 0,0
19.11.2019 10:00:00 3,0 2,7 10 5 17 9 SW 1018,3 27 0,0
19.11.2019 09:00:00 2,6 2,3 11 6 17 9 SSW 1017,9 0 0,0
19.11.2019 08:00:00 2,6 2,3 11 6 16 9 SSW 1017,5 0 0,0
19.11.2019 07:00:00 2,1 1,7 7 4 14 8 SW 1017,2 0 0,0
19.11.2019 06:00:00 2,3 1,6 10 5 18 10 SW 1016,8 0 0,0
19.11.2019 05:00:00 3,3 2,4 14 7 25 13 WSW 1016,4 0 0,0
19.11.2019 04:00:00 3,6 3,0 12 6 19 10 W 1016,2 0 0,0
19.11.2019 03:00:00 3,2 2,4 15 8 24 13 WSW 1015,9 0 0,0
19.11.2019 02:00:00 3,9 3,0 13 7 21 11 SW 1015,6 0 0,0
19.11.2019 01:00:00 4,5 3,6 14 8 26 14 WSW 1015,2 0 0,0
19.11.2019 00:00:00 5,1 4,7 17 9 25 13 W 1014,6 0 0,1
18.11.2019 23:00:00 5,8 5,4 18 10 26 14 W 1013,8 0 0,1
18.11.2019 22:00:00 6,1 5,8 13 7 29 16 W 1013,1 0 0,1
18.11.2019 21:00:00 6,4 6,2 22 12 34 18 WNW 1012,3 0 0,6
18.11.2019 20:00:00 6,6 6,5 26 14 40 22 WNW 1011,3 0 0,8
18.11.2019 19:00:00 6,6 6,6 22 12 31 17 WNW 1010,7 0 0,8
18.11.2019 18:00:00 6,1 6,1 17 9 23 13 WNW 1010,6 0 1,5
18.11.2019 17:00:00 5,3 5,2 11 6 17 9 WSW 1010,3 0 0,9
18.11.2019 16:00:00 4,9 4,7 9 5 15 8 SW 1010,2 0 0,4
18.11.2019 15:00:00 4,7 4,4 11 6 19 11 W 1010,1 0 0,4
18.11.2019 14:00:00 4,2 3,9 15 8 24 13 WNW 1010,3 0 0,3
18.11.2019 13:00:00 4,0 3,7 18 10 23 13 W 1010,1 0 0,2
18.11.2019 12:00:00 3,8 3,5 14 8 22 12 W 1010,4 0 0,5
18.11.2019 11:00:00 3,7 3,4 16 9 24 13 WNW 1010,4 0 0,2
18.11.2019 10:00:00 3,6 3,4 16 9 22 12 WNW 1010,2 0 0,1
18.11.2019 09:00:00 3,2 3,0 16 8 21 11 WNW 1010,1 0 0,3
18.11.2019 08:00:00 3,2 2,9 15 8 20 11 WNW 1010,0 0 0,0
18.11.2019 07:00:00 3,2 2,9 14 8 21 11 WNW 1009,6 0 0,0
18.11.2019 06:00:00 3,1 2,9 13 7 19 10 WNW 1009,3 0 0,1
18.11.2019 05:00:00 3,2 2,9 13 7 22 12 NW 1009,5 0 0,2
18.11.2019 04:00:00 3,2 2,7 11 6 16 9 NW 1009,8 0 1,0
18.11.2019 03:00:00 3,2 2,7 11 6 19 10 NNW 1010,0 0 0,2
18.11.2019 02:00:00 3,2 2,7 11 6 18 10 NNW 1009,9 0 0,0
18.11.2019 01:00:00 3,2 2,6 11 6 21 11 NNW 1009,7 0 0,0
18.11.2019 00:00:00 3,5 2,7 14 8 20 11 N 1010,0 0 0,0
17.11.2019 23:00:00 3,6 2,8 14 8 18 10 NNW 1010,0 0 0,0
17.11.2019 22:00:00 3,5 2,6 12 6 19 10 NNW 1010,1 0 0,0
17.11.2019 21:00:00 3,8 2,7 16 9 24 13 NNW 1010,1 0 0,0
17.11.2019 20:00:00 3,7 2,4 11 6 18 10 N 1010,6 0 0,0
17.11.2019 19:00:00 3,9 2,4 14 8 19 11 NNW 1010,4 0 0,0
17.11.2019 18:00:00 4,0 2,5 13 7 16 9 NNW 1010,5 0 0,0
17.11.2019 17:00:00 4,5 2,8 14 7 16 9 NNW 1010,5 0 0,0
17.11.2019 16:00:00 5,2 2,8 11 6 17 9 N 1010,8 0 0,0
17.11.2019 15:00:00 5,3 2,7 12 6 18 10 N 1011,1 0 0,0
17.11.2019 14:00:00 5,5 2,5 9 5 15 8 N 1011,1 12 0,0
17.11.2019 13:00:00 5,3 2,0 11 6 13 7 NNE 1011,3 60 0,0
17.11.2019 12:00:00 4,9 2,5 8 5 11 6 ENE 1011,6 60 0,0
17.11.2019 11:00:00 3,2 3,1 4 2 10 5 NNE 1012,1 60 0,0
17.11.2019 10:00:00 1,0 1,0 4 2 5 3 NNE 1012,2 46 0,0
17.11.2019 09:00:00 -0,7 -0,8 4 2 4 2 E 1012,8 0 0,0
17.11.2019 08:00:00 -0,8 -1,0 4 2 7 4 E 1012,9 0 0,0
17.11.2019 07:00:00 -0,7 -0,9 4 2 8 4 ESE 1012,3 0 0,0
17.11.2019 06:00:00 -0,5 -0,9 4 2 6 4 ESE 1011,7 0 0,0
17.11.2019 05:00:00 -0,2 -0,6 4 2 10 5 ESE 1011,6 0 0,0
17.11.2019 04:00:00 0,7 0,1 5 3 11 6 ESE 1011,8 0 0,0
17.11.2019 03:00:00 1,4 0,4 5 3 9 5 SE 1012,4 0 0,0
17.11.2019 02:00:00 2,5 0,9 7 4 11 6 SE 1011,8 0 0,0
17.11.2019 01:00:00 4,2 2,2 11 6 14 8 SSE 1011,8 0 0,0
17.11.2019 00:00:00 4,6 2,4 10 5 15 8 SSE 1011,7 0 0,0
16.11.2019 23:00:00 4,7 2,6 11 6 14 8 SSE 1011,6 0 0,0
16.11.2019 22:00:00 4,4 2,7 5 3 9 5 ESE 1011,6 0 0,0
16.11.2019 21:00:00 4,3 2,8 5 3 7 4 ESE 1011,5 0 0,0
16.11.2019 20:00:00 4,7 2,5 4 2 9 5 SE 1011,2 0 0,0
16.11.2019 19:00:00 4,7 2,3 7 4 14 7 SSE 1010,7 0 0,0
16.11.2019 18:00:00 5,1 1,8 8 5 16 8 S 1010,0 0 0,0
16.11.2019 17:00:00 5,8 1,7 12 7 26 14 S 1009,4 13 0,0
16.11.2019 16:00:00 6,0 2,1 12 6 23 12 SSE 1008,7 60 0,0
16.11.2019 15:00:00 6,5 2,0 15 8 24 13 SSE 1008,7 60 0,0
16.11.2019 14:00:00 6,2 2,5 14 8 20 11 SSE 1008,8 41 0,0
16.11.2019 13:00:00 4,8 2,4 14 8 21 12 SSE 1008,7 25 0,0
16.11.2019 12:00:00 3,4 1,5 13 7 19 10 SSE 1009,0 19 0,0
16.11.2019 11:00:00 2,8 1,1 11 6 18 10 SE 1009,1 56 0,0
16.11.2019 10:00:00 2,1 1,6 9 5 12 6 SE 1008,4 57 0,0
16.11.2019 09:00:00 -0,1 -0,5 4 2 11 6 S 1008,3 0 0,0
16.11.2019 08:00:00 -0,3 -0,8 10 5 13 7 E 1007,6 0 0,0
16.11.2019 07:00:00 0,4 0,1 7 4 15 8 SE 1007,0 0 0,0
16.11.2019 06:00:00 0,0 -0,3 7 4 11 6 ESE 1006,4 0 0,0
16.11.2019 05:00:00 -0,3 -0,8 7 4 12 7 ESE 1006,0 0 0,0
16.11.2019 04:00:00 -0,1 -0,6 8 4 12 6 ESE 1006,1 0 0,0

tt = Température de l'air
td = dewpoint
ff = Vitesse du vent
fx = gusts
dd = Direction du vent
ppp = reduced air pressure
sd = Ensoleillement
rr = Quantités de précipitations

stations d'obs. à proximité